createdAt,value
2022-08-26T00:01:45.052Z,21.07
2022-08-26T00:04:12.607Z,21.06
2022-08-26T00:06:42.497Z,20.89
2022-08-26T00:09:15.915Z,20.93
2022-08-26T00:11:43.454Z,20.88
2022-08-26T00:14:09.931Z,20.94
2022-08-26T00:16:36.597Z,20.94
2022-08-26T00:19:07.352Z,21.00
2022-08-26T00:21:35.219Z,20.92
2022-08-26T00:24:04.300Z,20.72
2022-08-26T00:26:30.834Z,20.74
2022-08-26T00:28:57.352Z,20.83
2022-08-26T00:31:23.797Z,20.75
2022-08-26T00:33:50.362Z,20.76
2022-08-26T00:36:20.350Z,20.69
2022-08-26T00:38:47.574Z,20.61
2022-08-26T00:41:14.068Z,20.72
2022-08-26T00:43:47.569Z,20.91
2022-08-26T00:46:19.649Z,20.57
2022-08-26T00:48:50.024Z,20.54
2022-08-26T00:51:29.512Z,20.55
2022-08-26T00:54:04.182Z,20.42
2022-08-26T00:56:36.201Z,20.57
2022-08-26T00:59:06.809Z,20.61
2022-08-26T01:01:33.316Z,20.52
2022-08-26T01:04:01.036Z,20.47
2022-08-26T01:06:28.459Z,20.29
2022-08-26T01:08:56.109Z,20.34
2022-08-26T01:11:24.221Z,20.34
2022-08-26T01:14:00.234Z,20.33
2022-08-26T01:16:26.945Z,20.29
2022-08-26T01:18:59.617Z,20.18
2022-08-26T01:21:48.636Z,20.17
2022-08-26T01:24:16.209Z,20.12
2022-08-26T01:26:44.756Z,20.17
2022-08-26T01:29:15.922Z,20.17
2022-08-26T01:31:46.551Z,20.11
2022-08-26T01:34:19.661Z,19.96
2022-08-26T01:36:51.501Z,19.97
2022-08-26T01:39:18.860Z,20.04
2022-08-26T01:41:46.338Z,19.99
2022-08-26T01:44:19.916Z,20.16
2022-08-26T01:46:48.751Z,20.22
2022-08-26T01:49:18.222Z,19.99
2022-08-26T01:51:46.577Z,20.03
2022-08-26T01:54:14.009Z,20.03
2022-08-26T01:56:41.064Z,19.95
2022-08-26T01:59:10.800Z,19.96
2022-08-26T02:01:38.977Z,19.96
2022-08-26T02:04:24.493Z,19.87
2022-08-26T02:06:51.641Z,19.86
2022-08-26T02:09:20.391Z,19.77
2022-08-26T02:11:47.815Z,19.92
2022-08-26T02:14:19.554Z,19.78
2022-08-26T02:16:49.027Z,19.79
2022-08-26T02:19:23.870Z,19.74
2022-08-26T02:21:52.722Z,19.74
2022-08-26T02:24:24.610Z,19.70
2022-08-26T02:26:55.855Z,19.64
2022-08-26T02:29:26.579Z,19.68
2022-08-26T02:31:54.839Z,19.59
2022-08-26T02:34:26.546Z,19.55
2022-08-26T02:36:59.101Z,19.51
2022-08-26T02:39:25.645Z,19.46
2022-08-26T02:41:52.240Z,19.53
2022-08-26T02:44:19.314Z,19.51
2022-08-26T02:46:47.047Z,19.55
2022-08-26T02:49:14.934Z,19.50
2022-08-26T02:51:41.458Z,19.53
2022-08-26T02:54:09.755Z,19.46
2022-08-26T02:56:36.449Z,19.35
2022-08-26T02:59:02.992Z,19.33
2022-08-26T03:01:32.983Z,19.38
2022-08-26T03:04:01.130Z,19.41
2022-08-26T03:06:28.458Z,19.45
2022-08-26T03:08:55.811Z,19.39
2022-08-26T03:11:23.748Z,19.37
2022-08-26T03:13:51.926Z,19.40
2022-08-26T03:16:18.905Z,19.38
2022-08-26T03:18:52.077Z,19.46
2022-08-26T03:21:20.929Z,19.57
2022-08-26T03:23:47.573Z,19.54
2022-08-26T03:26:15.839Z,19.53
2022-08-26T03:29:01.270Z,19.60
2022-08-26T03:31:29.628Z,19.77
2022-08-26T03:33:59.501Z,19.93
2022-08-26T03:36:26.653Z,19.94
2022-08-26T03:38:53.574Z,19.98
2022-08-26T03:41:21.324Z,20.19
2022-08-26T03:43:50.786Z,20.33
2022-08-26T03:46:18.649Z,20.44
2022-08-26T03:48:45.789Z,20.54
2022-08-26T03:51:14.849Z,20.52
2022-08-26T03:53:45.731Z,20.62
2022-08-26T03:56:12.804Z,20.73
2022-08-26T03:58:39.462Z,20.76
2022-08-26T04:01:09.856Z,20.78
2022-08-26T04:03:54.904Z,20.82
2022-08-26T04:06:21.289Z,20.87
2022-08-26T04:08:48.081Z,20.91
2022-08-26T04:11:20.725Z,20.93
2022-08-26T04:13:48.413Z,20.93
2022-08-26T04:16:17.474Z,20.82
2022-08-26T04:18:46.604Z,20.83
2022-08-26T04:21:15.327Z,20.97
2022-08-26T04:23:47.152Z,20.99
2022-08-26T04:26:15.181Z,20.94
2022-08-26T04:28:41.784Z,20.93
2022-08-26T04:31:12.534Z,20.97
2022-08-26T04:33:41.659Z,21.07
2022-08-26T04:36:09.327Z,21.05
2022-08-26T04:38:35.838Z,20.97
2022-08-26T04:41:03.349Z,20.91
2022-08-26T04:43:31.993Z,20.97
2022-08-26T04:46:01.851Z,20.97
2022-08-26T04:48:30.681Z,20.92
2022-08-26T04:50:58.557Z,20.99
2022-08-26T04:53:26.278Z,21.08
2022-08-26T04:55:55.200Z,21.05
2022-08-26T04:58:24.477Z,21.04
2022-08-26T05:00:54.264Z,21.06
2022-08-26T05:03:22.100Z,21.02
2022-08-26T05:05:50.207Z,21.06
2022-08-26T05:08:18.152Z,21.11
2022-08-26T05:10:52.477Z,21.14
2022-08-26T05:13:20.681Z,21.18
2022-08-26T05:15:48.633Z,21.16
2022-08-26T05:18:17.874Z,21.15
2022-08-26T05:20:49.810Z,21.18
2022-08-26T05:23:17.582Z,21.20
2022-08-26T05:25:47.246Z,21.28
2022-08-26T05:28:16.031Z,21.30
2022-08-26T05:30:43.017Z,21.26
2022-08-26T05:33:12.022Z,21.29
2022-08-26T05:35:39.504Z,21.34
2022-08-26T05:38:12.464Z,21.34
2022-08-26T05:40:44.586Z,21.32
2022-08-26T05:43:13.419Z,21.34
2022-08-26T05:45:46.284Z,21.32
2022-08-26T05:48:13.963Z,21.32
2022-08-26T05:50:46.370Z,21.32
2022-08-26T05:53:14.481Z,21.39
2022-08-26T05:55:45.067Z,21.34
2022-08-26T05:58:12.627Z,21.38
2022-08-26T06:00:39.978Z,21.40
2022-08-26T06:03:08.941Z,21.39
2022-08-26T06:05:39.980Z,21.41
2022-08-26T06:08:19.190Z,21.39
2022-08-26T06:10:55.791Z,21.44
2022-08-26T06:13:30.240Z,21.44
2022-08-26T06:15:59.999Z,21.48
2022-08-26T06:18:36.214Z,21.56
2022-08-26T06:21:11.969Z,21.80
2022-08-26T06:23:57.215Z,21.88
2022-08-26T06:26:25.953Z,22.01
2022-08-26T06:28:52.818Z,21.93
2022-08-26T06:31:19.383Z,21.98
2022-08-26T06:33:45.940Z,21.95
2022-08-26T06:36:19.429Z,21.95
2022-08-26T06:38:50.749Z,21.90
2022-08-26T06:41:21.460Z,22.09
2022-08-26T06:43:48.568Z,22.14
2022-08-26T06:46:18.106Z,22.08
2022-08-26T06:48:45.837Z,22.07
2022-08-26T06:51:18.939Z,22.11
2022-08-26T06:53:47.350Z,22.10
2022-08-26T06:56:17.571Z,22.15
2022-08-26T06:58:44.408Z,22.12
2022-08-26T07:01:22.930Z,22.17
2022-08-26T07:03:51.105Z,22.19
2022-08-26T07:06:21.689Z,22.34
2022-08-26T07:08:54.057Z,22.35
2022-08-26T07:11:20.657Z,22.37
2022-08-26T07:13:47.778Z,22.43
2022-08-26T07:16:17.413Z,22.38
2022-08-26T07:18:44.944Z,22.32
2022-08-26T07:21:14.287Z,22.31
2022-08-26T07:23:41.374Z,22.33
2022-08-26T07:26:11.770Z,22.42
2022-08-26T07:28:38.293Z,22.43
2022-08-26T07:31:12.898Z,22.43
2022-08-26T07:33:40.596Z,22.49
2022-08-26T07:36:08.962Z,22.35
2022-08-26T07:38:36.528Z,22.43
2022-08-26T07:41:03.697Z,22.36
2022-08-26T07:43:30.259Z,22.23
2022-08-26T07:45:57.718Z,22.21
2022-08-26T07:48:24.641Z,22.12
2022-08-26T07:50:53.830Z,22.16
2022-08-26T07:53:21.675Z,22.09
2022-08-26T07:55:51.172Z,22.07
2022-08-26T07:58:19.109Z,22.15
2022-08-26T08:00:47.400Z,22.22
2022-08-26T08:03:15.123Z,22.35
2022-08-26T08:05:42.415Z,22.39
2022-08-26T08:08:26.889Z,22.26
2022-08-26T08:10:56.447Z,22.41
2022-08-26T08:13:23.619Z,22.22
2022-08-26T08:15:50.445Z,22.17
2022-08-26T08:18:17.976Z,22.21
2022-08-26T08:21:04.652Z,22.28
2022-08-26T08:23:35.430Z,22.18
2022-08-26T08:26:04.542Z,22.21
2022-08-26T08:28:31.573Z,22.28
2022-08-26T08:30:58.595Z,22.26
2022-08-26T08:33:26.529Z,22.23
2022-08-26T08:35:53.015Z,22.21
2022-08-26T08:38:19.446Z,22.31
2022-08-26T08:40:46.541Z,22.13
2022-08-26T08:43:29.822Z,22.20
2022-08-26T08:46:00.557Z,22.22
2022-08-26T08:48:41.203Z,22.18
2022-08-26T08:51:23.371Z,21.99
2022-08-26T08:53:54.826Z,22.14
2022-08-26T08:56:28.167Z,22.16
2022-08-26T08:59:17.087Z,22.27
2022-08-26T09:02:11.934Z,22.32
2022-08-26T09:05:19.940Z,22.30
2022-08-26T09:07:58.636Z,22.26
2022-08-26T09:10:36.143Z,22.24
2022-08-26T09:13:07.887Z,22.23
2022-08-26T09:15:53.098Z,22.20
2022-08-26T09:18:27.938Z,22.20
2022-08-26T09:20:57.408Z,22.12
2022-08-26T09:23:25.247Z,22.14
2022-08-26T09:25:56.983Z,22.02
2022-08-26T09:28:25.673Z,22.05
2022-08-26T09:31:27.530Z,22.04
2022-08-26T09:34:17.566Z,22.12
2022-08-26T09:36:57.637Z,22.17
2022-08-26T09:39:26.556Z,22.28
2022-08-26T09:42:23.391Z,22.19
2022-08-26T09:45:03.483Z,22.24
2022-08-26T09:47:38.770Z,22.27
2022-08-26T09:50:23.623Z,22.29
2022-08-26T09:53:12.929Z,22.16
2022-08-26T09:55:42.081Z,22.29
2022-08-26T09:58:13.650Z,22.33
2022-08-26T10:00:43.616Z,22.34
2022-08-26T10:03:12.753Z,22.36
2022-08-26T10:05:56.413Z,22.24
2022-08-26T10:08:36.755Z,22.30
2022-08-26T10:11:14.455Z,22.39
2022-08-26T10:13:45.073Z,22.32
2022-08-26T10:16:33.331Z,22.51
2022-08-26T10:19:12.686Z,22.55
2022-08-26T10:22:07.556Z,22.65
2022-08-26T10:24:41.566Z,22.64
2022-08-26T10:27:23.467Z,22.63
2022-08-26T10:29:55.531Z,22.74
2022-08-26T10:32:37.357Z,22.70
2022-08-26T10:35:11.555Z,22.77
2022-08-26T10:38:01.674Z,22.80
2022-08-26T10:40:49.475Z,22.89
2022-08-26T10:43:41.339Z,22.89
2022-08-26T10:46:17.279Z,22.88
2022-08-26T10:48:52.983Z,22.85
2022-08-26T10:51:28.856Z,22.90
2022-08-26T10:54:02.279Z,22.86
2022-08-26T10:56:43.534Z,22.82
2022-08-26T10:59:40.630Z,22.80
2022-08-26T11:02:14.720Z,22.82
2022-08-26T11:05:00.947Z,22.85
2022-08-26T11:07:56.096Z,22.89
2022-08-26T11:10:23.560Z,23.04
2022-08-26T11:13:03.996Z,23.20
2022-08-26T11:15:30.818Z,23.37
2022-08-26T11:18:00.879Z,23.58
2022-08-26T11:20:27.736Z,23.77
2022-08-26T11:22:56.277Z,23.79
2022-08-26T11:25:30.804Z,23.78
2022-08-26T11:27:59.826Z,23.81
2022-08-26T11:30:42.665Z,23.95
2022-08-26T11:33:10.320Z,24.03
2022-08-26T11:35:37.489Z,23.88
2022-08-26T11:38:15.355Z,23.82
2022-08-26T11:40:56.231Z,23.89
2022-08-26T11:43:26.308Z,24.05
2022-08-26T11:46:05.728Z,24.12
2022-08-26T11:48:37.239Z,24.04
2022-08-26T11:51:10.504Z,24.14
2022-08-26T11:53:39.569Z,24.11
2022-08-26T11:56:20.962Z,24.12
2022-08-26T11:58:48.755Z,24.14
2022-08-26T12:01:27.303Z,24.08
2022-08-26T12:03:59.805Z,24.10
2022-08-26T12:06:32.813Z,24.10
2022-08-26T12:09:02.504Z,23.86
2022-08-26T12:11:32.872Z,23.90
2022-08-26T12:14:19.796Z,23.97
2022-08-26T12:16:47.077Z,23.77
2022-08-26T12:19:27.391Z,23.83
2022-08-26T12:22:08.935Z,23.83
2022-08-26T12:24:35.727Z,23.82
2022-08-26T12:27:11.481Z,23.86
2022-08-26T12:29:39.627Z,23.79
2022-08-26T12:32:13.428Z,23.84
2022-08-26T12:34:42.244Z,23.77
2022-08-26T12:37:12.100Z,23.68
2022-08-26T12:39:42.097Z,23.72
2022-08-26T12:42:17.367Z,23.67
2022-08-26T12:45:03.728Z,23.66
2022-08-26T12:47:42.632Z,23.55
2022-08-26T12:50:36.630Z,23.53
2022-08-26T12:53:14.774Z,23.56
2022-08-26T12:55:44.341Z,23.73
2022-08-26T12:58:28.925Z,23.76
2022-08-26T13:01:06.671Z,23.88
2022-08-26T13:03:45.573Z,24.03
2022-08-26T13:06:26.602Z,24.07
2022-08-26T13:08:54.836Z,24.10
2022-08-26T13:11:30.438Z,24.03
2022-08-26T13:13:58.726Z,24.09
2022-08-26T13:16:25.737Z,24.00
2022-08-26T13:18:58.819Z,24.09
2022-08-26T13:21:37.285Z,24.18
2022-08-26T13:24:16.548Z,24.12
2022-08-26T13:26:44.940Z,24.12
2022-08-26T13:29:12.257Z,24.01
2022-08-26T13:31:41.305Z,24.12
2022-08-26T13:34:10.688Z,24.12
2022-08-26T13:36:37.657Z,24.08
2022-08-26T13:39:05.347Z,23.83
2022-08-26T13:41:32.611Z,23.83
2022-08-26T13:43:59.675Z,23.83
2022-08-26T13:46:27.701Z,23.66
2022-08-26T13:51:22.795Z,23.48
2022-08-26T13:53:50.199Z,23.38
2022-08-26T13:56:16.806Z,23.36
2022-08-26T13:58:43.255Z,23.46
2022-08-26T14:01:13.713Z,23.34
2022-08-26T14:03:40.288Z,23.14
2022-08-26T14:06:06.819Z,23.18
2022-08-26T14:08:33.421Z,23.16
2022-08-26T14:11:00.121Z,23.11
2022-08-26T14:13:26.738Z,22.98
2022-08-26T14:15:53.644Z,23.00
2022-08-26T14:18:26.415Z,22.96
2022-08-26T14:20:55.104Z,22.95
2022-08-26T14:23:22.574Z,22.92
2022-08-26T14:25:49.364Z,22.88
2022-08-26T14:28:15.934Z,22.87
2022-08-26T14:30:44.395Z,22.88
2022-08-26T14:33:13.177Z,22.72
2022-08-26T14:35:40.435Z,22.72
2022-08-26T14:38:14.878Z,22.74
2022-08-26T14:40:44.599Z,22.69
2022-08-26T14:43:15.700Z,22.66
2022-08-26T14:45:45.042Z,22.65
2022-08-26T14:48:11.575Z,22.60
2022-08-26T14:50:38.329Z,22.61
2022-08-26T14:53:23.549Z,22.48
2022-08-26T14:55:50.548Z,22.65
2022-08-26T14:58:17.097Z,23.02
2022-08-26T15:00:43.690Z,23.46
2022-08-26T15:03:10.308Z,23.95
2022-08-26T15:05:37.037Z,24.35
2022-08-26T15:08:10.186Z,24.62
2022-08-26T15:10:37.353Z,24.87
2022-08-26T15:13:04.002Z,24.65
2022-08-26T15:15:30.639Z,24.45
2022-08-26T15:17:58.035Z,24.40
2022-08-26T15:20:24.922Z,24.38
2022-08-26T15:22:51.353Z,24.16
2022-08-26T15:25:19.674Z,24.34
2022-08-26T15:27:46.302Z,24.43
2022-08-26T15:30:13.350Z,24.23
2022-08-26T15:32:39.846Z,23.99
2022-08-26T15:35:09.133Z,23.75
2022-08-26T15:37:36.163Z,23.72
2022-08-26T15:40:03.141Z,23.66
2022-08-26T15:42:29.812Z,23.60
2022-08-26T15:44:56.338Z,23.68
2022-08-26T15:47:23.743Z,23.56
2022-08-26T15:49:50.303Z,23.32
2022-08-26T15:52:17.498Z,23.33
2022-08-26T15:54:44.038Z,23.24
2022-08-26T15:57:12.364Z,23.10
2022-08-26T15:59:40.181Z,23.01
2022-08-26T16:02:07.346Z,22.97
2022-08-26T16:04:34.056Z,22.94
2022-08-26T16:07:00.691Z,22.83
2022-08-26T16:09:28.731Z,22.83
2022-08-26T16:11:56.131Z,22.79
2022-08-26T16:14:23.641Z,22.68
2022-08-26T16:16:50.514Z,22.63
2022-08-26T16:19:17.523Z,22.60
2022-08-26T16:21:44.626Z,22.54
2022-08-26T16:24:11.890Z,22.47
2022-08-26T16:26:40.468Z,22.50
2022-08-26T16:29:10.133Z,22.53
2022-08-26T16:31:38.332Z,22.45
2022-08-26T16:34:05.921Z,22.48
2022-08-26T16:36:33.144Z,22.44
2022-08-26T16:38:59.641Z,22.45
2022-08-26T16:41:28.535Z,22.47
2022-08-26T16:43:55.776Z,22.45
2022-08-26T16:46:25.677Z,22.45
2022-08-26T16:48:54.183Z,22.45
2022-08-26T16:51:24.792Z,22.30
2022-08-26T16:53:51.863Z,22.42
2022-08-26T16:56:21.532Z,22.34
2022-08-26T16:58:48.598Z,22.40
2022-08-26T17:01:15.963Z,22.38
2022-08-26T17:03:42.894Z,22.35
2022-08-26T17:06:10.053Z,22.30
2022-08-26T17:08:38.410Z,22.31
2022-08-26T17:11:05.723Z,22.26
2022-08-26T17:13:35.516Z,22.24
2022-08-26T17:16:04.717Z,22.28
2022-08-26T17:18:31.474Z,22.14
2022-08-26T17:21:01.988Z,22.20
2022-08-26T17:23:28.565Z,22.09
2022-08-26T17:25:55.085Z,22.13
2022-08-26T17:28:21.577Z,22.11
2022-08-26T17:30:48.115Z,22.05
2022-08-26T17:33:14.810Z,21.97
2022-08-26T17:35:43.733Z,21.93
2022-08-26T17:38:10.392Z,21.96
2022-08-26T17:40:37.129Z,21.85
2022-08-26T17:43:03.770Z,21.98
2022-08-26T17:45:30.324Z,21.96
2022-08-26T17:47:57.246Z,21.94
2022-08-26T17:50:24.347Z,21.97
2022-08-26T17:52:50.862Z,21.94
2022-08-26T17:55:18.445Z,21.91
2022-08-26T17:57:53.630Z,21.88
2022-08-26T18:00:26.081Z,21.81
2022-08-26T18:02:54.112Z,21.77
2022-08-26T18:05:20.934Z,21.81
2022-08-26T18:07:48.328Z,21.79
2022-08-26T18:10:17.557Z,21.76
2022-08-26T18:12:44.077Z,21.73
2022-08-26T18:15:12.641Z,21.65
2022-08-26T18:17:39.881Z,21.66
2022-08-26T18:20:09.430Z,21.69
2022-08-26T18:22:36.039Z,21.72
2022-08-26T18:25:04.803Z,21.66
2022-08-26T18:27:32.528Z,21.66
2022-08-26T18:29:59.118Z,21.69
2022-08-26T18:32:25.617Z,21.65
2022-08-26T18:34:52.094Z,21.65
2022-08-26T18:37:18.782Z,21.65
2022-08-26T18:39:45.294Z,21.61
2022-08-26T18:42:11.826Z,21.58
2022-08-26T18:44:38.483Z,21.58
2022-08-26T18:47:05.218Z,21.55
2022-08-26T18:49:31.825Z,21.53
2022-08-26T18:51:58.276Z,21.48
2022-08-26T18:54:24.781Z,21.46
2022-08-26T18:56:51.750Z,21.48
2022-08-26T18:59:18.324Z,21.48
2022-08-26T19:01:45.370Z,21.47
2022-08-26T19:04:15.541Z,21.48
2022-08-26T19:06:43.354Z,21.39
2022-08-26T19:09:11.109Z,21.42
2022-08-26T19:11:42.826Z,21.46
2022-08-26T19:14:13.503Z,21.43
2022-08-26T19:16:42.233Z,21.39
2022-08-26T19:19:09.158Z,21.43
2022-08-26T19:21:37.495Z,21.35
2022-08-26T19:24:07.224Z,21.32
2022-08-26T19:26:34.272Z,21.23
2022-08-26T19:29:01.032Z,21.29
2022-08-26T19:31:28.140Z,21.22
2022-08-26T19:33:54.666Z,21.19
2022-08-26T19:36:23.773Z,21.21
2022-08-26T19:38:50.810Z,21.11
2022-08-26T19:41:26.569Z,21.12
2022-08-26T19:44:05.358Z,21.12
2022-08-26T19:46:32.191Z,21.12
2022-08-26T19:48:58.810Z,21.09
2022-08-26T19:51:33.603Z,21.09
2022-08-26T19:54:01.492Z,21.07
2022-08-26T19:56:28.682Z,21.00
2022-08-26T19:58:56.068Z,21.00
2022-08-26T20:01:23.553Z,20.97
2022-08-26T20:03:50.562Z,20.98
2022-08-26T20:06:17.693Z,20.97
2022-08-26T20:08:45.057Z,20.91
2022-08-26T20:11:16.118Z,20.87
2022-08-26T20:13:43.548Z,20.86
2022-08-26T20:16:12.684Z,20.78
2022-08-26T20:18:59.352Z,20.77
2022-08-26T20:21:26.399Z,20.86
2022-08-26T20:24:00.387Z,20.85
2022-08-26T20:26:28.769Z,20.85
2022-08-26T20:28:55.914Z,20.82
2022-08-26T20:31:23.007Z,20.70
2022-08-26T20:33:50.509Z,20.62
2022-08-26T20:36:18.897Z,20.70
2022-08-26T20:38:45.955Z,20.65
2022-08-26T20:41:13.295Z,20.54
2022-08-26T20:43:40.446Z,20.56
2022-08-26T20:46:08.354Z,20.50
2022-08-26T20:48:45.771Z,20.53
2022-08-26T20:51:12.697Z,20.54
2022-08-26T20:53:39.489Z,20.46
2022-08-26T20:56:08.819Z,20.52
2022-08-26T20:58:36.250Z,20.51
2022-08-26T21:01:07.242Z,20.52
2022-08-26T21:03:34.683Z,20.45
2022-08-26T21:06:01.360Z,20.49
2022-08-26T21:08:27.810Z,20.35
2022-08-26T21:10:54.390Z,20.38
2022-08-26T21:13:20.839Z,20.37
2022-08-26T21:15:47.267Z,20.37
2022-08-26T21:18:13.763Z,20.24
2022-08-26T21:20:40.207Z,20.21
2022-08-26T21:23:06.619Z,20.20
2022-08-26T21:25:33.093Z,20.21
2022-08-26T21:27:59.557Z,20.21
2022-08-26T21:30:25.972Z,20.16
2022-08-26T21:32:52.478Z,20.06
2022-08-26T21:35:18.969Z,20.13
2022-08-26T21:37:45.647Z,20.14
2022-08-26T21:40:12.466Z,20.15
2022-08-26T21:42:39.053Z,20.10
2022-08-26T21:45:06.783Z,20.04
2022-08-26T21:47:33.327Z,20.02
2022-08-26T21:49:59.939Z,20.08
2022-08-26T21:52:26.543Z,20.06
2022-08-26T21:54:57.642Z,20.02
2022-08-26T21:57:24.253Z,19.82
2022-08-26T21:59:51.013Z,19.87
2022-08-26T22:02:17.550Z,19.78
2022-08-26T22:04:48.588Z,19.76
2022-08-26T22:07:17.336Z,19.67
2022-08-26T22:09:44.562Z,19.67
2022-08-26T22:12:12.593Z,19.72
2022-08-26T22:14:39.750Z,19.67
2022-08-26T22:17:06.354Z,19.67
2022-08-26T22:19:34.070Z,19.68
2022-08-26T22:22:07.939Z,19.61
2022-08-26T22:24:35.001Z,19.56
2022-08-26T22:27:01.446Z,19.63
2022-08-26T22:29:27.911Z,19.63
2022-08-26T22:31:54.501Z,19.31
2022-08-26T22:34:23.074Z,19.43
2022-08-26T22:36:50.658Z,19.32
2022-08-26T22:39:21.909Z,19.27
2022-08-26T22:41:48.748Z,19.17
2022-08-26T22:44:16.743Z,19.24
2022-08-26T22:46:43.745Z,19.22
2022-08-26T22:49:12.588Z,19.17
2022-08-26T22:51:39.093Z,19.22
2022-08-26T22:54:06.369Z,19.09
2022-08-26T22:56:32.880Z,19.07
2022-08-26T22:58:59.307Z,18.98
2022-08-26T23:01:25.913Z,18.86
2022-08-26T23:03:52.563Z,18.80
2022-08-26T23:06:19.102Z,18.73
2022-08-26T23:08:47.017Z,18.75
2022-08-26T23:11:14.990Z,18.72
2022-08-26T23:13:42.370Z,18.68
2022-08-26T23:16:11.640Z,18.59
2022-08-26T23:18:39.966Z,18.57
2022-08-26T23:21:06.906Z,18.65
2022-08-26T23:23:34.838Z,18.58
2022-08-26T23:26:05.569Z,18.64
2022-08-26T23:28:33.244Z,18.57
2022-08-26T23:31:00.156Z,18.54
2022-08-26T23:33:46.662Z,18.42
2022-08-26T23:36:17.450Z,18.53
2022-08-26T23:38:45.114Z,18.49
2022-08-26T23:41:19.098Z,18.47
2022-08-26T23:43:45.585Z,18.49
2022-08-26T23:46:12.289Z,18.49
2022-08-26T23:48:38.894Z,18.48
2022-08-26T23:51:24.314Z,18.44
2022-08-26T23:53:50.820Z,18.38
2022-08-26T23:56:18.206Z,18.24
2022-08-26T23:58:44.798Z,18.28
